This is the latest recevied weather packets stored in our database for station/object HP3ICC-13. If no packets are shown the sender has not sent any weather packets the latest 10 day(s).
| Time | Temp. | Humidity | Pressure | Rain* | Wind** | Luminosity | Snow |
|---|---|---|---|---|---|---|---|
| 1777917798 | 28.89° C | 62% | 1010 hPa | 0 mm | - | - | - |
| 1777917738 | 28.89° C | 62% | 1010 hPa | 0 mm | - | - | - |
| 1777916597 | 29.44° C | 62% | 1010 hPa | 0 mm | - | - | - |
| 1777915396 | 28.89° C | 64% | 1011 hPa | 0 mm | - | - | - |
| 1777915336 | 28.89° C | 64% | 1011 hPa | 0 mm | - | - | - |
| 1777914196 | 28.33° C | 63% | 1011 hPa | 0 mm | - | - | - |
| 1777914136 | 28.33° C | 63% | 1011 hPa | 0 mm | - | - | - |
| 1777912995 | 28.89° C | 67% | 1011 hPa | 0 mm | - | - | - |
| 1777912935 | 28.89° C | 67% | 1011 hPa | 0 mm | - | - | - |
| 1777911795 | 28.89° C | 67% | 1011 hPa | 0 mm | - | - | - |
| 1777911735 | 28.89° C | 67% | 1011 hPa | 0 mm | - | - | - |
| 1777910594 | 28.33° C | 67% | 1011 hPa | 0 mm | - | - | - |
| 1777910534 | 28.33° C | 67% | 1011 hPa | 0 mm | - | - | - |
| 1777909394 | 27.78° C | 74% | 1011 hPa | 0 mm | - | - | - |
| 1777909334 | 27.78° C | 74% | 1011 hPa | 0 mm | - | - | - |
| 1777908193 | 27.78° C | 74% | 1011 hPa | 0 mm | - | - | - |
| 1777908133 | 27.78° C | 74% | 1011 hPa | 0 mm | - | - | - |
| 1777906993 | 28.33° C | 74% | 1011 hPa | 0 mm | - | - | - |
| 1777906933 | 28.33° C | 74% | 1011 hPa | 0 mm | - | - | - |
| 1777905792 | 26.11° C | 85% | 1011 hPa | 0 mm | - | - | - |
| 1777905732 | 26.11° C | 85% | 1011 hPa | 0 mm | - | - | - |
| 1777904592 | 26.11° C | 85% | 1011 hPa | 0 mm | - | - | - |
| 1777904532 | 26.11° C | 85% | 1011 hPa | 0 mm | - | - | - |
| 1777903391 | 26.11° C | 85% | 1011 hPa | 0 mm | - | - | - |
| 1777903331 | 26.11° C | 85% | 1011 hPa | 0 mm | - | - | - |
* Rain latest hour (hover to see other rain measurements)
** Current wind speed in m/s (hover to see current wind gust speed)